createdAt,value
2018-08-25T00:01:20.364Z,95.80
2018-08-25T00:03:47.359Z,94.98
2018-08-25T00:06:14.449Z,94.41
2018-08-25T00:08:41.431Z,94.11
2018-08-25T00:11:09.076Z,93.56
2018-08-25T00:13:36.097Z,93.19
2018-08-25T00:16:03.104Z,92.70
2018-08-25T00:18:30.100Z,92.83
2018-08-25T00:20:57.192Z,91.97
2018-08-25T00:23:24.275Z,91.63
2018-08-25T00:25:51.525Z,91.06
2018-08-25T00:28:18.522Z,90.90
2018-08-25T00:30:51.498Z,89.59
2018-08-25T00:33:18.539Z,89.26
2018-08-25T00:35:45.595Z,88.46
2018-08-25T00:38:12.695Z,87.91
2018-08-25T00:40:39.772Z,87.13
2018-08-25T00:43:07.005Z,86.86
2018-08-25T00:45:33.998Z,86.84
2018-08-25T00:48:00.988Z,86.97
2018-08-25T00:50:28.291Z,86.81
2018-08-25T00:52:55.807Z,87.01
2018-08-25T00:55:22.963Z,86.76
2018-08-25T00:57:50.203Z,87.02
2018-08-25T01:00:17.192Z,87.55
2018-08-25T01:02:44.172Z,87.86
2018-08-25T01:05:11.272Z,88.55
2018-08-25T01:07:38.359Z,88.69
2018-08-25T01:10:05.364Z,88.83
2018-08-25T01:12:32.377Z,89.30
2018-08-25T01:14:59.341Z,89.59
2018-08-25T01:17:26.295Z,89.69
2018-08-25T01:19:53.939Z,89.80
2018-08-25T01:22:20.916Z,90.10
2018-08-25T01:24:47.884Z,90.76
2018-08-25T01:27:15.300Z,91.05
2018-08-25T01:29:42.280Z,91.72
2018-08-25T01:32:17.464Z,91.92
2018-08-25T01:34:44.448Z,92.38
2018-08-25T01:37:11.431Z,92.30
2018-08-25T01:39:38.489Z,92.75
2018-08-25T01:42:05.499Z,93.13
2018-08-25T01:44:32.545Z,93.03
2018-08-25T01:47:03.205Z,93.38
2018-08-25T01:49:30.335Z,93.14
2018-08-25T01:51:57.379Z,93.11
2018-08-25T01:54:24.352Z,93.95
2018-08-25T01:56:51.372Z,92.29
2018-08-25T01:59:18.407Z,92.94
2018-08-25T02:01:45.448Z,92.64
2018-08-25T02:04:12.578Z,92.01
2018-08-25T02:06:40.323Z,92.61
2018-08-25T02:09:09.523Z,92.84
2018-08-25T02:11:36.517Z,93.55
2018-08-25T02:14:03.611Z,92.75
2018-08-25T02:16:30.688Z,93.59
2018-08-25T02:18:57.923Z,92.26
2018-08-25T02:21:24.981Z,92.71
2018-08-25T02:23:52.034Z,92.21
2018-08-25T02:26:19.011Z,93.11
2018-08-25T02:28:46.081Z,92.99
2018-08-25T02:31:13.168Z,93.15
2018-08-25T02:33:40.175Z,93.34
2018-08-25T02:36:07.158Z,94.01
2018-08-25T02:38:34.150Z,94.93
2018-08-25T02:41:01.176Z,93.90
2018-08-25T02:43:28.143Z,93.34
2018-08-25T02:45:55.217Z,94.32
2018-08-25T02:48:22.252Z,94.51
2018-08-25T02:50:49.244Z,95.00
2018-08-25T02:53:16.223Z,96.03
2018-08-25T02:55:43.211Z,93.66
2018-08-25T02:58:10.180Z,94.49
2018-08-25T03:00:37.238Z,94.25
2018-08-25T03:03:04.464Z,94.69
2018-08-25T03:05:31.518Z,95.79
2018-08-25T03:07:58.567Z,95.19
2018-08-25T03:10:25.562Z,96.00
2018-08-25T03:12:52.625Z,95.83
2018-08-25T03:15:19.628Z,95.62
2018-08-25T03:17:46.632Z,95.65
2018-08-25T03:20:13.811Z,95.85
2018-08-25T03:22:40.784Z,96.02
2018-08-25T03:25:07.776Z,96.66
2018-08-25T03:27:34.752Z,96.29
2018-08-25T03:30:01.770Z,96.67
2018-08-25T03:32:28.842Z,96.98
2018-08-25T03:34:55.815Z,96.72
2018-08-25T03:37:22.834Z,97.52
2018-08-25T03:39:49.864Z,97.63
2018-08-25T03:42:16.846Z,97.63
2018-08-25T03:44:43.823Z,97.08
2018-08-25T03:47:10.804Z,97.12
2018-08-25T03:49:37.788Z,97.46
2018-08-25T03:52:04.837Z,98.40
2018-08-25T03:54:31.834Z,98.54
2018-08-25T03:56:58.815Z,98.45
2018-08-25T03:59:25.883Z,99.07
2018-08-25T04:01:52.873Z,97.33
2018-08-25T04:04:20.009Z,97.27
2018-08-25T04:06:47.060Z,97.68
2018-08-25T04:09:15.371Z,97.11
2018-08-25T04:11:42.447Z,96.74
2018-08-25T04:14:10.791Z,97.47
2018-08-25T04:16:39.196Z,98.17
2018-08-25T04:19:06.708Z,98.55
2018-08-25T04:21:33.764Z,98.93
2018-08-25T04:24:01.119Z,98.63
2018-08-25T04:26:28.105Z,98.24
2018-08-25T04:28:55.069Z,97.60
2018-08-25T04:31:22.084Z,98.94
2018-08-25T04:33:49.097Z,100.00
2018-08-25T04:36:16.157Z,98.55
2018-08-25T04:38:43.122Z,98.60
2018-08-25T04:41:10.202Z,99.51
2018-08-25T04:43:37.256Z,97.73
2018-08-25T04:46:05.640Z,96.52
2018-08-25T04:48:32.707Z,97.38
2018-08-25T04:50:59.776Z,97.04
2018-08-25T04:53:26.760Z,97.90
2018-08-25T04:55:53.847Z,97.07
2018-08-25T04:58:21.104Z,97.44
2018-08-25T05:00:48.099Z,98.27
2018-08-25T05:03:15.116Z,97.10
2018-08-25T05:05:42.102Z,97.10
2018-08-25T05:08:09.075Z,96.44
2018-08-25T05:10:36.067Z,96.77
2018-08-25T05:13:03.397Z,95.17
2018-08-25T05:15:30.374Z,94.18
2018-08-25T05:17:57.452Z,94.03
2018-08-25T05:20:24.548Z,94.22
2018-08-25T05:22:51.517Z,95.21
2018-08-25T05:25:18.516Z,93.61
2018-08-25T05:27:45.501Z,93.21
2018-08-25T05:30:12.487Z,92.50
2018-08-25T05:32:39.518Z,93.16
2018-08-25T05:35:06.628Z,93.74
2018-08-25T05:37:33.963Z,94.94
2018-08-25T05:40:01.003Z,94.66
2018-08-25T05:42:27.971Z,94.16
2018-08-25T05:44:55.039Z,93.93
2018-08-25T05:47:22.020Z,93.69
2018-08-25T05:49:49.019Z,94.01
2018-08-25T05:52:16.221Z,93.61
2018-08-25T05:54:43.191Z,93.62
2018-08-25T05:57:10.152Z,92.54
2018-08-25T05:59:37.276Z,92.07
2018-08-25T06:02:04.737Z,92.25
2018-08-25T06:04:31.812Z,91.36
2018-08-25T06:06:59.859Z,91.22
2018-08-25T06:09:26.830Z,89.42
2018-08-25T06:11:53.799Z,89.15
2018-08-25T06:14:20.835Z,88.59
2018-08-25T06:16:47.805Z,87.27
2018-08-25T06:19:14.840Z,86.71
2018-08-25T06:21:42.060Z,85.40
2018-08-25T06:24:09.040Z,85.15
2018-08-25T06:26:36.007Z,85.70
2018-08-25T06:29:03.044Z,85.95
2018-08-25T06:31:30.025Z,86.20
2018-08-25T06:33:57.025Z,86.67
2018-08-25T06:36:24.011Z,86.55
2018-08-25T06:38:51.000Z,85.19
2018-08-25T06:41:18.282Z,85.76
2018-08-25T06:43:45.464Z,85.61
2018-08-25T06:46:12.451Z,84.02
2018-08-25T06:48:40.679Z,84.13
2018-08-25T06:51:07.667Z,84.48
2018-08-25T06:53:36.221Z,84.17
2018-08-25T06:56:03.376Z,84.17
2018-08-25T06:58:30.371Z,83.19
2018-08-25T07:00:57.394Z,84.17
2018-08-25T07:03:24.471Z,84.54
2018-08-25T07:05:51.699Z,84.23
2018-08-25T07:08:18.840Z,83.41
2018-08-25T07:10:46.187Z,83.89
2018-08-25T07:13:13.300Z,82.73
2018-08-25T07:15:40.313Z,82.77
2018-08-25T07:18:07.535Z,82.24
2018-08-25T07:20:34.509Z,83.02
2018-08-25T07:23:01.638Z,81.74
2018-08-25T07:25:29.028Z,80.89
2018-08-25T07:27:56.182Z,80.74
2018-08-25T07:30:23.297Z,80.75
2018-08-25T07:32:50.377Z,79.03
2018-08-25T07:35:17.389Z,79.05
2018-08-25T07:37:44.439Z,77.97
2018-08-25T07:40:11.808Z,78.01
2018-08-25T07:42:38.841Z,77.50
2018-08-25T07:45:06.097Z,77.47
2018-08-25T07:47:33.132Z,76.77
2018-08-25T07:50:00.167Z,77.52
2018-08-25T07:52:27.432Z,78.80
2018-08-25T07:54:54.437Z,79.39
2018-08-25T07:57:21.447Z,83.97
2018-08-25T07:59:48.485Z,85.45
2018-08-25T08:02:15.522Z,87.81
2018-08-25T08:04:42.554Z,89.54
2018-08-25T08:07:09.642Z,89.78
2018-08-25T08:09:36.677Z,92.39
2018-08-25T08:12:03.973Z,94.83
2018-08-25T08:14:31.088Z,97.08
2018-08-25T08:16:58.164Z,97.30
2018-08-25T08:19:25.244Z,97.67
2018-08-25T08:21:52.589Z,99.09
2018-08-25T08:24:19.648Z,100.00
2018-08-25T08:26:46.668Z,100.00
2018-08-25T08:29:13.713Z,100.00
2018-08-25T08:31:40.816Z,100.00
2018-08-25T08:34:07.919Z,100.00
2018-08-25T08:36:34.950Z,100.00
2018-08-25T08:39:02.024Z,100.00
2018-08-25T08:41:29.029Z,100.00
2018-08-25T08:43:56.123Z,100.00
2018-08-25T08:46:28.975Z,100.00
2018-08-25T08:48:56.352Z,100.00
2018-08-25T08:51:23.365Z,100.00
2018-08-25T08:53:50.446Z,100.00
2018-08-25T08:56:17.484Z,100.00
2018-08-25T08:58:44.495Z,100.00
2018-08-25T09:01:11.569Z,100.00
2018-08-25T09:03:39.158Z,100.00
2018-08-25T09:06:06.255Z,100.00
2018-08-25T09:08:34.251Z,100.00
2018-08-25T09:11:01.612Z,100.00
2018-08-25T09:13:28.706Z,100.00
2018-08-25T09:15:56.225Z,100.00
2018-08-25T09:18:23.260Z,100.00
2018-08-25T09:20:50.287Z,100.00
2018-08-25T09:23:17.299Z,100.00
2018-08-25T09:25:44.591Z,100.00
2018-08-25T09:28:11.656Z,100.00
2018-08-25T09:30:38.712Z,100.00
2018-08-25T09:33:05.843Z,100.00
2018-08-25T09:35:33.341Z,100.00
2018-08-25T09:38:00.369Z,100.00
2018-08-25T09:40:27.388Z,100.00
2018-08-25T09:42:54.419Z,100.00
2018-08-25T09:45:21.444Z,100.00
2018-08-25T09:47:48.424Z,100.00
2018-08-25T09:50:15.533Z,100.00
2018-08-25T09:52:42.656Z,100.00
2018-08-25T09:55:09.667Z,100.00
2018-08-25T09:57:37.543Z,100.00
2018-08-25T10:00:04.816Z,100.00
2018-08-25T10:02:31.899Z,100.00
2018-08-25T10:04:59.276Z,100.00
2018-08-25T10:07:26.257Z,100.00
2018-08-25T10:09:53.255Z,100.00
2018-08-25T10:12:20.300Z,100.00
2018-08-25T10:14:48.057Z,100.00
2018-08-25T10:17:15.036Z,99.89
2018-08-25T10:19:42.345Z,100.00
2018-08-25T10:22:09.516Z,100.00
2018-08-25T10:24:36.525Z,100.00
2018-08-25T10:27:03.790Z,99.64
2018-08-25T10:29:30.788Z,96.96
2018-08-25T10:31:58.338Z,100.00
2018-08-25T10:34:25.417Z,99.35
2018-08-25T10:36:52.487Z,97.26
2018-08-25T10:39:19.858Z,97.67
2018-08-25T10:41:47.039Z,97.91
2018-08-25T10:44:14.290Z,100.00
2018-08-25T10:46:41.684Z,99.81
2018-08-25T10:49:08.792Z,100.00
2018-08-25T10:51:36.222Z,100.00
2018-08-25T10:54:04.121Z,100.00
2018-08-25T10:56:31.287Z,100.00
2018-08-25T10:58:58.279Z,100.00
2018-08-25T11:01:25.309Z,100.00
2018-08-25T11:03:52.284Z,100.00
2018-08-25T11:06:19.246Z,100.00
2018-08-25T11:08:46.248Z,100.00
2018-08-25T11:11:13.238Z,100.00
2018-08-25T11:13:40.316Z,99.27
2018-08-25T11:16:07.332Z,98.87
2018-08-25T11:18:34.480Z,99.58
2018-08-25T11:21:01.519Z,98.42
2018-08-25T11:23:28.531Z,100.00
2018-08-25T11:25:55.524Z,100.00
2018-08-25T11:28:23.619Z,100.00
2018-08-25T11:30:51.423Z,100.00
2018-08-25T11:33:18.379Z,100.00
2018-08-25T11:35:45.628Z,100.00
2018-08-25T11:38:12.740Z,100.00
2018-08-25T11:40:39.699Z,100.00
2018-08-25T11:43:06.752Z,100.00
2018-08-25T11:45:33.751Z,98.39
2018-08-25T11:48:00.849Z,100.00
2018-08-25T11:50:27.949Z,100.00
2018-08-25T11:52:55.008Z,100.00
2018-08-25T11:55:22.012Z,100.00
2018-08-25T11:57:49.099Z,100.00
2018-08-25T12:00:16.559Z,98.43
2018-08-25T12:02:43.820Z,99.63
2018-08-25T12:05:10.827Z,100.00
2018-08-25T12:07:38.248Z,98.37
2018-08-25T12:10:05.297Z,100.00
2018-08-25T12:12:32.374Z,99.72
2018-08-25T12:15:06.530Z,100.00
2018-08-25T12:17:33.515Z,100.00
2018-08-25T12:20:00.488Z,100.00
2018-08-25T12:22:28.513Z,100.00
2018-08-25T12:24:56.162Z,100.00
2018-08-25T12:27:23.184Z,100.00
2018-08-25T12:29:50.258Z,100.00
2018-08-25T12:32:18.287Z,100.00
2018-08-25T12:34:46.724Z,100.00
2018-08-25T12:37:13.736Z,100.00
2018-08-25T12:39:40.988Z,100.00
2018-08-25T12:42:08.655Z,100.00
2018-08-25T12:44:35.651Z,97.41
2018-08-25T12:47:02.743Z,97.32
2018-08-25T12:49:30.353Z,96.17
2018-08-25T12:51:57.349Z,97.43
2018-08-25T12:54:24.424Z,98.02
2018-08-25T12:56:51.976Z,98.48
2018-08-25T12:59:19.296Z,99.72
2018-08-25T13:01:46.360Z,96.81
2018-08-25T13:04:13.304Z,97.88
2018-08-25T13:06:40.279Z,96.28
2018-08-25T13:09:09.139Z,96.55
2018-08-25T13:11:37.624Z,97.33
2018-08-25T13:14:05.119Z,97.09
2018-08-25T13:16:32.171Z,98.66
2018-08-25T13:18:59.404Z,97.59
2018-08-25T13:21:27.072Z,97.22
2018-08-25T13:23:54.520Z,98.63
2018-08-25T13:26:21.616Z,98.02
2018-08-25T13:28:48.675Z,97.18
2018-08-25T13:31:15.984Z,97.00
2018-08-25T13:33:43.044Z,95.44
2018-08-25T13:36:10.239Z,96.78
2018-08-25T13:38:37.256Z,95.60
2018-08-25T13:41:04.466Z,94.65
2018-08-25T13:43:31.896Z,95.53
2018-08-25T13:45:59.189Z,96.03
2018-08-25T13:48:26.192Z,95.17
2018-08-25T13:50:53.339Z,94.99
2018-08-25T13:53:20.516Z,95.76
2018-08-25T13:55:47.641Z,95.01
2018-08-25T13:58:15.012Z,94.48
2018-08-25T14:00:42.176Z,93.76
2018-08-25T14:03:09.353Z,93.99
2018-08-25T14:05:36.668Z,94.41
2018-08-25T14:08:03.704Z,92.99
2018-08-25T14:10:30.645Z,92.75
2018-08-25T14:12:57.915Z,92.78
2018-08-25T14:15:24.931Z,92.10
2018-08-25T14:20:33.400Z,91.42
2018-08-25T14:23:00.388Z,94.32
2018-08-25T14:25:27.683Z,90.07
2018-08-25T14:27:54.780Z,89.96
2018-08-25T14:30:21.771Z,91.58
2018-08-25T14:32:48.802Z,90.92
2018-08-25T14:35:16.316Z,90.33
2018-08-25T14:37:43.302Z,90.67
2018-08-25T14:40:10.308Z,90.58
2018-08-25T14:42:37.400Z,88.75
2018-08-25T14:45:05.571Z,89.74
2018-08-25T14:47:32.872Z,92.33
2018-08-25T14:50:00.254Z,93.63
2018-08-25T14:52:27.292Z,94.40
2018-08-25T14:54:56.228Z,95.63
2018-08-25T14:57:23.218Z,97.05
2018-08-25T14:59:50.479Z,98.11
2018-08-25T15:02:17.856Z,98.34
2018-08-25T15:04:45.098Z,98.58
2018-08-25T15:07:12.163Z,98.05
2018-08-25T15:09:39.259Z,98.68
2018-08-25T15:12:06.263Z,97.61
2018-08-25T15:14:33.355Z,98.34
2018-08-25T15:17:00.400Z,99.18
2018-08-25T15:19:27.647Z,99.11
2018-08-25T15:21:55.011Z,96.54
2018-08-25T15:24:22.438Z,94.91
2018-08-25T15:26:49.455Z,95.13
2018-08-25T15:29:16.453Z,94.75
2018-08-25T15:31:43.684Z,90.38
2018-08-25T15:34:10.669Z,91.54
2018-08-25T15:36:37.754Z,86.78
2018-08-25T15:39:09.045Z,89.54
2018-08-25T15:41:38.170Z,87.51
2018-08-25T15:44:05.386Z,84.51
2018-08-25T15:46:32.611Z,83.90
2018-08-25T15:48:59.627Z,82.64
2018-08-25T15:51:26.588Z,82.13
2018-08-25T15:53:53.721Z,84.95
2018-08-25T15:56:21.120Z,85.08
2018-08-25T15:58:48.092Z,86.29
2018-08-25T16:01:15.076Z,87.10
2018-08-25T16:03:42.269Z,87.26
2018-08-25T16:06:09.813Z,87.51
2018-08-25T16:08:36.827Z,89.69
2018-08-25T16:11:03.989Z,87.58
2018-08-25T16:13:30.993Z,87.48
2018-08-25T16:15:58.219Z,87.13
2018-08-25T16:18:25.316Z,86.24
2018-08-25T16:20:52.431Z,86.65
2018-08-25T16:23:19.561Z,85.19
2018-08-25T16:25:46.578Z,84.58
2018-08-25T16:28:13.770Z,86.08
2018-08-25T16:30:40.830Z,85.19
2018-08-25T16:33:08.165Z,85.78
2018-08-25T16:35:35.196Z,84.90
2018-08-25T16:38:02.271Z,85.51
2018-08-25T16:40:29.730Z,85.04
2018-08-25T16:42:56.851Z,85.96
2018-08-25T16:45:23.829Z,85.67
2018-08-25T16:47:50.880Z,85.69
2018-08-25T16:50:17.993Z,86.40
2018-08-25T16:52:45.007Z,84.66
2018-08-25T16:55:12.250Z,83.20
2018-08-25T16:57:39.616Z,83.68
2018-08-25T17:00:07.351Z,83.82
2018-08-25T17:02:34.508Z,82.71
2018-08-25T17:05:01.978Z,82.69
2018-08-25T17:07:29.097Z,83.02
2018-08-25T17:09:56.284Z,83.43
2018-08-25T17:12:23.357Z,83.11
2018-08-25T17:14:50.393Z,82.43
2018-08-25T17:17:19.968Z,83.44
2018-08-25T17:19:47.687Z,83.08
2018-08-25T17:22:16.109Z,83.42
2018-08-25T17:24:43.405Z,84.12
2018-08-25T17:27:10.472Z,84.36
2018-08-25T17:29:37.672Z,83.42
2018-08-25T17:32:05.052Z,84.29
2018-08-25T17:34:32.063Z,84.40
2018-08-25T17:37:00.913Z,84.84
2018-08-25T17:39:29.466Z,85.42
2018-08-25T17:41:58.205Z,85.21
2018-08-25T17:44:26.890Z,85.08
2018-08-25T17:46:55.795Z,85.81
2018-08-25T17:49:25.285Z,86.00
2018-08-25T17:51:52.465Z,86.72
2018-08-25T17:54:19.471Z,87.64
2018-08-25T17:56:46.569Z,87.81
2018-08-25T17:59:13.900Z,88.20
2018-08-25T18:01:40.923Z,88.49
2018-08-25T18:04:08.227Z,88.86
2018-08-25T18:06:35.344Z,89.59
2018-08-25T18:09:02.629Z,88.81
2018-08-25T18:11:29.644Z,89.07
2018-08-25T18:13:56.657Z,89.59
2018-08-25T18:16:24.216Z,89.21
2018-08-25T18:18:51.238Z,90.08
2018-08-25T18:21:18.264Z,90.39
2018-08-25T18:23:45.456Z,90.88
2018-08-25T18:26:13.417Z,91.46
2018-08-25T18:28:40.790Z,91.10
2018-08-25T18:31:07.931Z,91.15
2018-08-25T18:33:34.921Z,91.89
2018-08-25T18:36:02.403Z,91.80
2018-08-25T18:38:30.000Z,92.00
2018-08-25T18:40:57.057Z,92.40
2018-08-25T18:43:24.064Z,94.38
2018-08-25T18:45:51.235Z,92.87
2018-08-25T18:48:19.093Z,92.42
2018-08-25T18:50:46.409Z,91.77
2018-08-25T18:53:14.927Z,93.02
2018-08-25T18:55:42.136Z,92.67
2018-08-25T18:58:09.265Z,94.53
2018-08-25T19:00:36.496Z,94.74
2018-08-25T19:03:03.560Z,94.42
2018-08-25T19:05:30.984Z,95.33
2018-08-25T19:07:57.988Z,95.05
2018-08-25T19:10:25.131Z,96.52
2018-08-25T19:12:52.484Z,96.70
2018-08-25T19:15:19.517Z,97.59
2018-08-25T19:17:46.978Z,96.53
2018-08-25T19:20:14.194Z,97.88
2018-08-25T19:22:41.433Z,97.94
2018-08-25T19:25:08.811Z,98.24
2018-08-25T19:27:35.873Z,97.50
2018-08-25T19:30:03.009Z,96.43
2018-08-25T19:32:30.234Z,95.37
2018-08-25T19:34:57.676Z,95.02
2018-08-25T19:37:24.713Z,94.92
2018-08-25T19:39:51.799Z,93.27
2018-08-25T19:42:20.727Z,92.78
2018-08-25T19:44:47.979Z,92.54
2018-08-25T19:47:15.577Z,93.01
2018-08-25T19:49:42.621Z,92.43
2018-08-25T19:52:10.272Z,92.00
2018-08-25T19:54:37.703Z,92.51
2018-08-25T19:57:05.233Z,92.61
2018-08-25T19:59:32.345Z,92.38
2018-08-25T20:01:59.420Z,92.63
2018-08-25T20:04:26.681Z,93.01
2018-08-25T20:06:53.783Z,93.60
2018-08-25T20:09:21.016Z,94.04
2018-08-25T20:11:47.966Z,94.60
2018-08-25T20:14:16.437Z,94.35
2018-08-25T20:16:43.567Z,94.97
2018-08-25T20:19:10.701Z,95.24
2018-08-25T20:21:37.797Z,95.94
2018-08-25T20:24:04.833Z,96.30
2018-08-25T20:26:32.669Z,96.83
2018-08-25T20:29:00.296Z,96.97
2018-08-25T20:31:27.272Z,97.11
2018-08-25T20:33:56.663Z,97.55
2018-08-25T20:36:26.955Z,98.39
2018-08-25T20:38:54.871Z,97.41
2018-08-25T20:41:22.100Z,98.04
2018-08-25T20:43:50.048Z,98.70
2018-08-25T20:46:17.934Z,99.33
2018-08-25T20:48:45.943Z,99.17
2018-08-25T20:51:13.167Z,99.78
2018-08-25T20:53:40.515Z,100.00
2018-08-25T20:56:07.511Z,100.00
2018-08-25T20:58:37.616Z,100.00
2018-08-25T21:01:04.696Z,100.00
2018-08-25T21:03:31.878Z,100.00
2018-08-25T21:05:58.839Z,100.00
2018-08-25T21:08:25.918Z,100.00
2018-08-25T21:10:53.050Z,100.00
2018-08-25T21:13:20.025Z,100.00
2018-08-25T21:15:47.027Z,100.00
2018-08-25T21:18:14.055Z,100.00
2018-08-25T21:20:41.025Z,100.00
2018-08-25T21:23:08.359Z,100.00
2018-08-25T21:25:35.331Z,100.00
2018-08-25T21:28:02.347Z,100.00
2018-08-25T21:30:29.331Z,100.00
2018-08-25T21:32:56.443Z,100.00
2018-08-25T21:35:23.430Z,100.00
2018-08-25T21:37:50.740Z,100.00
2018-08-25T21:40:18.031Z,100.00
2018-08-25T21:42:45.427Z,100.00
2018-08-25T21:45:12.487Z,100.00
2018-08-25T21:47:42.957Z,100.00
2018-08-25T21:50:10.146Z,100.00
2018-08-25T21:52:37.119Z,100.00
2018-08-25T21:55:04.131Z,100.00
2018-08-25T21:57:31.433Z,100.00
2018-08-25T21:59:58.542Z,100.00
2018-08-25T22:02:25.643Z,100.00
2018-08-25T22:04:52.975Z,100.00
2018-08-25T22:07:20.119Z,100.00
2018-08-25T22:09:47.218Z,100.00
2018-08-25T22:12:14.158Z,100.00
2018-08-25T22:14:41.232Z,100.00
2018-08-25T22:17:08.214Z,100.00
2018-08-25T22:19:35.178Z,100.00
2018-08-25T22:22:03.175Z,100.00
2018-08-25T22:24:30.146Z,100.00
2018-08-25T22:26:57.111Z,100.00
2018-08-25T22:29:24.173Z,100.00
2018-08-25T22:31:51.139Z,100.00
2018-08-25T22:34:18.104Z,100.00
2018-08-25T22:36:46.109Z,100.00
2018-08-25T22:39:13.115Z,100.00
2018-08-25T22:41:40.129Z,100.00
2018-08-25T22:44:07.842Z,100.00
2018-08-25T22:46:34.860Z,100.00
2018-08-25T22:49:02.317Z,100.00
2018-08-25T22:51:29.706Z,100.00
2018-08-25T22:53:56.646Z,100.00
2018-08-25T22:56:23.628Z,100.00
2018-08-25T22:58:53.573Z,100.00
2018-08-25T23:01:20.734Z,100.00
2018-08-25T23:03:47.723Z,100.00
2018-08-25T23:06:14.987Z,100.00
2018-08-25T23:08:41.975Z,100.00
2018-08-25T23:11:09.910Z,100.00
2018-08-25T23:13:36.881Z,100.00
2018-08-25T23:16:03.968Z,100.00
2018-08-25T23:18:31.255Z,100.00
2018-08-25T23:20:58.429Z,100.00
2018-08-25T23:23:25.404Z,100.00
2018-08-25T23:25:52.482Z,100.00
2018-08-25T23:28:19.615Z,100.00
2018-08-25T23:30:47.107Z,100.00
2018-08-25T23:33:14.387Z,100.00
2018-08-25T23:35:41.706Z,100.00
2018-08-25T23:38:08.980Z,100.00
2018-08-25T23:40:36.739Z,100.00
2018-08-25T23:43:03.798Z,100.00
2018-08-25T23:45:30.831Z,100.00
2018-08-25T23:47:57.827Z,100.00
2018-08-25T23:50:24.877Z,100.00
2018-08-25T23:52:51.940Z,100.00
2018-08-25T23:55:19.243Z,100.00
2018-08-25T23:57:46.220Z,100.00
